createdAt,value
2022-09-18T00:01:10.837Z,5.90
2022-09-18T00:03:38.889Z,8.60
2022-09-18T00:06:10.606Z,7.03
2022-09-18T00:08:39.657Z,2.73
2022-09-18T00:11:09.540Z,4.40
2022-09-18T00:13:38.724Z,9.83
2022-09-18T00:16:07.827Z,5.20
2022-09-18T00:18:35.923Z,14.87
2022-09-18T00:21:05.483Z,6.30
2022-09-18T00:23:34.847Z,19.57
2022-09-18T00:26:02.820Z,19.60
2022-09-18T00:28:30.723Z,7.17
2022-09-18T00:31:05.195Z,4.50
2022-09-18T00:33:33.172Z,2.27
2022-09-18T00:36:05.737Z,6.37
2022-09-18T00:38:35.493Z,6.27
2022-09-18T00:41:04.997Z,2.97
2022-09-18T00:43:35.117Z,1.97
2022-09-18T00:46:06.753Z,1.87
2022-09-18T00:48:41.645Z,2.53
2022-09-18T00:51:10.255Z,4.67
2022-09-18T00:53:44.935Z,4.73
2022-09-18T00:56:16.887Z,1.30
2022-09-18T00:58:46.097Z,1.37
2022-09-18T01:01:14.055Z,2.13
2022-09-18T01:03:41.948Z,1.37
2022-09-18T01:06:15.740Z,1.50
2022-09-18T01:08:56.537Z,2.43
2022-09-18T01:11:38.128Z,1.93
2022-09-18T01:14:23.060Z,1.30
2022-09-18T01:16:58.607Z,3.83
2022-09-18T01:19:43.886Z,3.43
2022-09-18T01:22:23.893Z,5.90
2022-09-18T01:25:14.900Z,0.80
2022-09-18T01:28:11.717Z,2.73
2022-09-18T01:30:43.787Z,2.50
2022-09-18T01:33:17.150Z,1.60
2022-09-18T01:35:48.833Z,1.00
2022-09-18T01:38:21.615Z,0.20
2022-09-18T01:40:54.400Z,0.30
2022-09-18T01:43:29.063Z,0.30
2022-09-18T01:46:01.187Z,0.30
2022-09-18T01:48:33.265Z,0.20
2022-09-18T01:51:07.695Z,0.33
2022-09-18T01:53:40.856Z,0.40
2022-09-18T01:56:14.129Z,0.77
2022-09-18T01:58:44.224Z,0.30
2022-09-18T02:01:16.962Z,0.30
2022-09-18T02:03:50.675Z,0.40
2022-09-18T02:06:23.628Z,0.40
2022-09-18T02:08:54.079Z,0.37
2022-09-18T02:11:22.944Z,0.30
2022-09-18T02:13:58.056Z,0.40
2022-09-18T02:16:33.234Z,0.30
2022-09-18T02:19:09.847Z,0.37
2022-09-18T02:21:38.220Z,0.50
2022-09-18T02:24:08.924Z,0.50
2022-09-18T02:26:38.888Z,0.73
2022-09-18T02:29:12.343Z,0.43
2022-09-18T02:31:41.354Z,0.40
2022-09-18T02:34:12.348Z,0.40
2022-09-18T02:37:02.778Z,0.47
2022-09-18T02:39:53.432Z,0.40
2022-09-18T02:42:32.892Z,0.30
2022-09-18T02:45:10.144Z,0.57
2022-09-18T02:47:55.204Z,0.40
2022-09-18T02:50:29.971Z,0.63
2022-09-18T02:53:07.009Z,0.50
2022-09-18T02:55:44.309Z,0.40
2022-09-18T02:58:18.615Z,0.50
2022-09-18T03:00:50.037Z,0.50
2022-09-18T03:03:19.037Z,0.33
2022-09-18T03:05:46.969Z,0.50
2022-09-18T03:08:14.831Z,0.63
2022-09-18T03:10:42.656Z,0.73
2022-09-18T03:13:10.500Z,0.30
2022-09-18T03:15:38.336Z,2.17
2022-09-18T03:18:07.588Z,4.30
2022-09-18T03:20:35.608Z,2.80
2022-09-18T03:23:03.430Z,1.70
2022-09-18T03:25:31.275Z,2.83
2022-09-18T03:27:59.153Z,1.80
2022-09-18T03:30:26.979Z,2.10
2022-09-18T03:32:54.815Z,1.80
2022-09-18T03:35:24.051Z,2.03
2022-09-18T03:37:51.913Z,1.80
2022-09-18T03:40:19.909Z,2.23
2022-09-18T03:42:47.783Z,2.07
2022-09-18T03:45:15.867Z,2.20
2022-09-18T03:47:43.697Z,2.50
2022-09-18T03:50:11.676Z,2.43
2022-09-18T03:52:40.979Z,2.50
2022-09-18T03:55:09.728Z,3.00
2022-09-18T03:57:37.702Z,2.70
2022-09-18T04:00:07.104Z,2.83
2022-09-18T04:02:34.980Z,3.80
2022-09-18T04:05:03.087Z,2.93
2022-09-18T04:07:30.999Z,2.70
2022-09-18T04:10:00.334Z,3.20
2022-09-18T04:12:28.531Z,3.17
2022-09-18T04:14:56.450Z,3.13
2022-09-18T04:17:24.875Z,2.87
2022-09-18T04:19:53.723Z,3.90
2022-09-18T04:22:21.859Z,3.00
2022-09-18T04:24:50.443Z,3.07
2022-09-18T04:27:19.768Z,3.00
2022-09-18T04:29:47.933Z,3.80
2022-09-18T04:32:15.857Z,12.07
2022-09-18T04:34:43.959Z,4.10
2022-09-18T04:37:11.861Z,4.83
2022-09-18T04:39:40.345Z,3.77
2022-09-18T04:42:08.452Z,5.07
2022-09-18T04:44:37.653Z,4.27
2022-09-18T04:47:06.204Z,4.30
2022-09-18T04:49:34.092Z,4.40
2022-09-18T04:52:02.030Z,4.40
2022-09-18T04:54:29.896Z,4.60
2022-09-18T04:56:57.863Z,4.23
2022-09-18T04:59:25.704Z,4.60
2022-09-18T05:01:54.999Z,5.73
2022-09-18T05:04:22.930Z,4.77
2022-09-18T05:06:50.767Z,5.13
2022-09-18T05:09:18.617Z,4.60
2022-09-18T05:11:46.530Z,4.43
2022-09-18T05:14:14.395Z,4.97
2022-09-18T05:16:42.228Z,5.10
2022-09-18T05:19:11.452Z,5.20
2022-09-18T05:21:39.463Z,4.83
2022-09-18T05:24:07.441Z,4.70
2022-09-18T05:26:35.360Z,4.23
2022-09-18T05:29:03.247Z,4.67
2022-09-18T05:31:31.163Z,4.40
2022-09-18T05:33:59.090Z,4.63
2022-09-18T05:36:28.300Z,4.80
2022-09-18T05:38:56.175Z,6.03
2022-09-18T05:41:24.032Z,4.67
2022-09-18T05:43:51.861Z,3.97
2022-09-18T05:46:19.825Z,3.83
2022-09-18T05:48:49.739Z,3.90
2022-09-18T05:51:17.770Z,3.70
2022-09-18T05:53:48.536Z,4.37
2022-09-18T05:56:17.120Z,3.70
2022-09-18T05:58:45.017Z,3.97
2022-09-18T06:01:14.506Z,3.70
2022-09-18T06:03:42.573Z,3.87
2022-09-18T06:06:10.457Z,2.77
2022-09-18T06:08:38.574Z,2.60
2022-09-18T06:11:08.030Z,3.03
2022-09-18T06:13:35.982Z,3.33
2022-09-18T06:16:04.243Z,4.67
2022-09-18T06:18:32.158Z,6.97
2022-09-18T06:21:00.388Z,2.90
2022-09-18T06:23:29.514Z,3.40
2022-09-18T06:25:59.120Z,4.50
2022-09-18T06:28:28.635Z,2.80
2022-09-18T06:30:56.496Z,3.97
2022-09-18T06:33:24.450Z,2.40
2022-09-18T06:35:52.331Z,3.47
2022-09-18T06:38:20.198Z,2.30
2022-09-18T06:40:51.840Z,5.53
2022-09-18T06:43:20.294Z,3.03
2022-09-18T06:45:53.971Z,2.03
2022-09-18T06:48:22.019Z,2.20
2022-09-18T06:50:54.602Z,2.60
2022-09-18T06:53:23.184Z,2.03
2022-09-18T06:55:51.586Z,2.10
2022-09-18T06:58:20.869Z,3.13
2022-09-18T07:00:48.796Z,2.63
2022-09-18T07:03:18.052Z,2.93
2022-09-18T07:05:46.586Z,1.80
2022-09-18T07:08:14.856Z,2.30
2022-09-18T07:10:42.809Z,2.50
2022-09-18T07:13:10.703Z,2.90
2022-09-18T07:15:38.594Z,2.30
2022-09-18T07:18:08.110Z,3.40
2022-09-18T07:20:37.329Z,2.70
2022-09-18T07:23:05.480Z,2.63
2022-09-18T07:25:34.633Z,1.60
2022-09-18T07:28:08.078Z,2.13
2022-09-18T07:30:36.066Z,3.83
2022-09-18T07:33:04.798Z,2.87
2022-09-18T07:35:33.443Z,3.90
2022-09-18T07:38:05.897Z,3.53
2022-09-18T07:40:34.416Z,2.23
2022-09-18T07:43:03.925Z,2.57
2022-09-18T07:45:32.179Z,4.70
2022-09-18T07:48:02.637Z,5.70
2022-09-18T07:50:30.521Z,6.77
2022-09-18T07:53:02.165Z,2.10
2022-09-18T07:55:31.438Z,2.33
2022-09-18T07:58:00.857Z,2.10
2022-09-18T08:00:31.191Z,3.13
2022-09-18T08:03:03.394Z,1.80
2022-09-18T08:05:31.789Z,2.80
2022-09-18T08:08:04.333Z,2.40
2022-09-18T08:10:34.976Z,5.50
2022-09-18T08:13:03.759Z,1.70
2022-09-18T08:15:32.812Z,2.47
2022-09-18T08:18:01.043Z,2.75
2022-09-18T08:20:29.830Z,8.60
2022-09-18T08:22:58.551Z,2.00
2022-09-18T08:25:27.431Z,4.75
2022-09-18T08:28:00.140Z,6.30
2022-09-18T08:30:28.383Z,2.38
2022-09-18T08:33:00.126Z,2.63
2022-09-18T08:35:28.531Z,2.30
2022-09-18T08:37:56.634Z,3.65
2022-09-18T08:40:37.017Z,1.80
2022-09-18T08:43:17.112Z,2.03
2022-09-18T08:45:56.091Z,3.83
2022-09-18T08:48:27.875Z,2.08
2022-09-18T08:51:01.177Z,1.90
2022-09-18T08:53:35.090Z,3.60
2022-09-18T08:56:05.596Z,3.33
2022-09-18T08:58:39.123Z,4.13
2022-09-18T09:01:10.463Z,2.80
2022-09-18T09:03:49.852Z,1.73
2022-09-18T09:06:32.108Z,3.63
2022-09-18T09:09:23.780Z,8.93
2022-09-18T09:11:59.980Z,2.25
2022-09-18T09:14:56.529Z,7.55
2022-09-18T09:17:39.820Z,2.92
2022-09-18T09:20:24.241Z,7.03
2022-09-18T09:23:01.900Z,2.00
2022-09-18T09:25:39.794Z,1.90
2022-09-18T09:28:16.821Z,4.03
2022-09-18T09:30:49.348Z,3.20
2022-09-18T09:33:22.484Z,2.63
2022-09-18T09:35:54.628Z,2.40
2022-09-18T09:38:40.444Z,2.60
2022-09-18T09:41:17.373Z,2.80
2022-09-18T09:43:53.784Z,3.97
2022-09-18T09:46:37.796Z,5.97
2022-09-18T09:49:11.309Z,3.40
2022-09-18T09:51:47.813Z,3.47
2022-09-18T09:54:15.756Z,4.13
2022-09-18T09:56:51.242Z,4.10
2022-09-18T09:59:25.513Z,4.23
2022-09-18T10:02:00.868Z,3.83
2022-09-18T10:04:37.998Z,3.93
2022-09-18T10:07:16.150Z,5.20
2022-09-18T10:09:49.313Z,4.10
2022-09-18T10:12:25.968Z,5.13
2022-09-18T10:14:58.251Z,4.77
2022-09-18T10:17:32.553Z,4.37
2022-09-18T10:20:00.496Z,4.77
2022-09-18T10:22:29.908Z,4.90
2022-09-18T10:25:04.804Z,6.80
2022-09-18T10:27:32.866Z,4.77
2022-09-18T10:30:01.392Z,4.90
2022-09-18T10:32:38.423Z,4.43
2022-09-18T10:35:42.784Z,4.53
2022-09-18T10:38:30.801Z,4.50
2022-09-18T10:41:12.558Z,4.53
2022-09-18T10:43:56.049Z,4.40
2022-09-18T10:46:26.153Z,4.40
2022-09-18T10:48:55.716Z,5.13
2022-09-18T10:51:25.840Z,4.57
2022-09-18T10:54:16.605Z,5.32
2022-09-18T10:56:44.511Z,5.37
2022-09-18T10:59:35.156Z,4.83
2022-09-18T11:02:06.326Z,4.73
2022-09-18T11:04:35.937Z,5.03
2022-09-18T11:07:07.628Z,5.17
2022-09-18T11:09:39.618Z,5.15
2022-09-18T11:12:15.847Z,4.95
2022-09-18T11:14:47.452Z,4.65
2022-09-18T11:17:31.489Z,3.67
2022-09-18T11:20:03.112Z,4.78
2022-09-18T11:22:40.099Z,4.40
2022-09-18T11:25:17.794Z,3.75
2022-09-18T11:27:47.682Z,4.20
2022-09-18T11:30:24.026Z,4.18
2022-09-18T11:32:58.409Z,3.58
2022-09-18T11:35:29.571Z,3.55
2022-09-18T11:38:00.844Z,3.92
2022-09-18T11:40:32.875Z,3.80
2022-09-18T11:43:05.515Z,4.70
2022-09-18T11:45:50.836Z,3.30
2022-09-18T11:48:27.409Z,4.45
2022-09-18T11:50:58.956Z,3.20
2022-09-18T11:53:31.365Z,4.20
2022-09-18T11:56:05.489Z,6.03
2022-09-18T11:58:39.036Z,3.00
2022-09-18T12:01:16.440Z,3.80
2022-09-18T12:03:49.905Z,2.72
2022-09-18T12:06:28.774Z,3.30
2022-09-18T12:09:01.152Z,3.65
2022-09-18T12:11:35.880Z,4.05
2022-09-18T12:14:13.350Z,2.90
2022-09-18T12:16:46.133Z,2.78
2022-09-18T12:19:19.203Z,3.00
2022-09-18T12:21:55.800Z,5.45
2022-09-18T12:24:24.216Z,3.13
2022-09-18T12:27:01.943Z,2.47
2022-09-18T12:29:44.665Z,2.80
2022-09-18T12:32:31.315Z,3.33
2022-09-18T12:35:07.751Z,3.03
2022-09-18T12:37:52.046Z,3.65
2022-09-18T12:40:44.539Z,3.90
2022-09-18T12:43:34.888Z,2.95
2022-09-18T12:46:19.512Z,5.45
2022-09-18T12:49:00.279Z,3.83
2022-09-18T12:51:40.104Z,2.80
2022-09-18T12:54:27.005Z,3.53
2022-09-18T12:57:08.404Z,2.70
2022-09-18T12:59:47.436Z,2.60
2022-09-18T13:02:28.916Z,3.80
2022-09-18T13:05:03.736Z,2.80
2022-09-18T13:07:36.329Z,2.90
2022-09-18T13:10:12.686Z,4.87
2022-09-18T13:12:45.746Z,2.90
2022-09-18T13:15:18.228Z,2.37
2022-09-18T13:17:51.131Z,3.00
2022-09-18T13:20:25.018Z,2.10
2022-09-18T13:22:56.024Z,2.77
2022-09-18T13:25:31.472Z,3.03
2022-09-18T13:28:03.199Z,2.50
2022-09-18T13:30:31.943Z,2.73
2022-09-18T13:33:01.066Z,2.87
2022-09-18T13:35:31.108Z,2.83
2022-09-18T13:38:16.601Z,2.20
2022-09-18T13:40:48.306Z,2.13
2022-09-18T13:43:24.261Z,2.97
2022-09-18T13:45:52.732Z,2.53
2022-09-18T13:48:24.431Z,3.30
2022-09-18T13:50:57.217Z,2.37
2022-09-18T13:53:33.527Z,1.97
2022-09-18T13:56:03.946Z,2.10
2022-09-18T13:58:54.395Z,2.30
2022-09-18T14:01:58.081Z,2.53
2022-09-18T14:05:08.616Z,4.67
2022-09-18T14:07:55.310Z,2.97
2022-09-18T14:10:26.961Z,4.47
2022-09-18T14:13:28.289Z,2.27
2022-09-18T14:16:03.026Z,2.40
2022-09-18T14:18:33.443Z,3.17
2022-09-18T14:21:16.462Z,4.00
2022-09-18T14:24:26.002Z,2.33
2022-09-18T14:26:57.313Z,3.60
2022-09-18T14:29:29.467Z,1.73
2022-09-18T14:32:00.822Z,1.90
2022-09-18T14:34:35.504Z,2.83
2022-09-18T14:37:23.203Z,3.50
2022-09-18T14:39:53.250Z,2.10
2022-09-18T14:42:32.449Z,3.10
2022-09-18T14:45:24.221Z,3.00
2022-09-18T14:47:53.948Z,3.33
2022-09-18T14:50:28.574Z,3.40
2022-09-18T14:52:57.575Z,2.73
2022-09-18T14:55:31.956Z,2.23
2022-09-18T14:58:03.211Z,2.03
2022-09-18T15:00:34.195Z,2.97
2022-09-18T15:03:07.260Z,1.90
2022-09-18T15:05:35.833Z,4.23
2022-09-18T15:08:06.392Z,2.20
2022-09-18T15:10:39.088Z,2.07
2022-09-18T15:13:09.472Z,4.30
2022-09-18T15:15:40.132Z,1.67
2022-09-18T15:18:19.809Z,3.00
2022-09-18T15:20:52.809Z,2.93
2022-09-18T15:23:23.121Z,2.10
2022-09-18T15:25:53.651Z,4.03
2022-09-18T15:28:24.146Z,4.60
2022-09-18T15:30:56.950Z,1.77
2022-09-18T15:33:27.574Z,2.60
2022-09-18T15:35:56.990Z,3.27
2022-09-18T15:38:35.148Z,2.20
2022-09-18T15:41:22.185Z,3.83
2022-09-18T15:43:50.498Z,3.13
2022-09-18T15:46:27.342Z,2.33
2022-09-18T15:49:00.433Z,3.03
2022-09-18T15:51:30.206Z,4.63
2022-09-18T15:54:26.508Z,3.77
2022-09-18T15:56:56.746Z,3.70
2022-09-18T15:59:30.564Z,3.30
2022-09-18T16:01:59.291Z,3.23
2022-09-18T16:04:32.932Z,4.60
2022-09-18T16:07:04.075Z,5.27
2022-09-18T16:09:36.967Z,5.00
2022-09-18T16:12:34.491Z,4.43
2022-09-18T16:15:15.935Z,5.77
2022-09-18T16:18:27.107Z,5.43
2022-09-18T16:21:05.455Z,4.40
2022-09-18T16:23:36.013Z,3.17
2022-09-18T16:26:10.591Z,7.13
2022-09-18T16:28:42.631Z,4.33
2022-09-18T16:31:11.701Z,8.90
2022-09-18T16:33:50.548Z,3.97
2022-09-18T16:36:27.830Z,4.70
2022-09-18T16:38:55.860Z,6.53
2022-09-18T16:41:23.891Z,10.00
2022-09-18T16:43:53.088Z,3.20
2022-09-18T16:46:23.817Z,7.73
2022-09-18T16:48:52.252Z,3.70
2022-09-18T16:51:22.167Z,4.20
2022-09-18T16:53:51.505Z,3.53
2022-09-18T16:56:25.330Z,3.40
2022-09-18T16:58:54.406Z,2.63
2022-09-18T17:01:23.290Z,3.00
2022-09-18T17:03:51.802Z,4.00
2022-09-18T17:06:19.962Z,4.83
2022-09-18T17:08:47.812Z,4.77
2022-09-18T17:11:18.073Z,4.03
2022-09-18T17:13:46.039Z,7.27
2022-09-18T17:16:22.280Z,6.87
2022-09-18T17:19:01.747Z,4.07
2022-09-18T17:21:29.802Z,4.57
2022-09-18T17:23:57.873Z,4.27
2022-09-18T17:26:28.577Z,4.33
2022-09-18T17:28:56.458Z,3.73
2022-09-18T17:31:26.409Z,4.03
2022-09-18T17:33:55.650Z,3.10
2022-09-18T17:36:24.347Z,7.20
2022-09-18T17:38:52.395Z,4.30
2022-09-18T17:41:20.464Z,4.83
2022-09-18T17:43:53.690Z,3.57
2022-09-18T17:46:22.031Z,3.93
2022-09-18T17:48:50.120Z,4.60
2022-09-18T17:51:19.687Z,6.77
2022-09-18T17:53:50.560Z,4.73
2022-09-18T17:56:20.745Z,10.43
2022-09-18T17:58:48.894Z,6.07
2022-09-18T18:01:20.254Z,6.20
2022-09-18T18:03:48.585Z,4.23
2022-09-18T18:06:21.541Z,6.70
2022-09-18T18:08:49.900Z,9.67
2022-09-18T18:11:20.008Z,5.67
2022-09-18T18:13:48.890Z,6.60
2022-09-18T18:16:23.108Z,6.90
2022-09-18T18:18:51.836Z,7.13
2022-09-18T18:21:19.950Z,10.03
2022-09-18T18:23:49.095Z,7.57
2022-09-18T18:26:16.978Z,11.23
2022-09-18T18:28:45.183Z,9.10
2022-09-18T18:31:14.477Z,5.07
2022-09-18T18:33:44.312Z,5.07
2022-09-18T18:36:14.925Z,5.43
2022-09-18T18:38:44.159Z,8.03
2022-09-18T18:41:13.336Z,5.13
2022-09-18T18:43:42.028Z,6.90
2022-09-18T18:46:12.904Z,6.17
2022-09-18T18:48:41.388Z,5.93
2022-09-18T18:51:13.444Z,5.87
2022-09-18T18:53:42.101Z,8.03
2022-09-18T18:56:12.275Z,6.70
2022-09-18T18:58:40.658Z,5.10
2022-09-18T19:01:10.768Z,5.37
2022-09-18T19:03:43.095Z,4.80
2022-09-18T19:06:13.297Z,5.43
2022-09-18T19:08:42.060Z,5.83
2022-09-18T19:11:09.903Z,6.90
2022-09-18T19:13:44.510Z,7.17
2022-09-18T19:16:13.411Z,6.47
2022-09-18T19:18:41.817Z,6.13
2022-09-18T19:21:09.704Z,6.73
2022-09-18T19:23:38.936Z,9.07
2022-09-18T19:26:07.335Z,8.27
2022-09-18T19:28:35.182Z,6.77
2022-09-18T19:31:05.182Z,8.73
2022-09-18T19:33:34.321Z,6.77
2022-09-18T19:36:06.034Z,8.63
2022-09-18T19:38:37.023Z,10.43
2022-09-18T19:41:11.326Z,10.37
2022-09-18T19:43:39.290Z,9.87
2022-09-18T19:46:11.995Z,10.73
2022-09-18T19:48:40.023Z,10.87
2022-09-18T19:51:09.391Z,11.47
2022-09-18T19:53:37.251Z,12.63
2022-09-18T19:56:27.459Z,10.73
2022-09-18T19:58:59.339Z,11.50
2022-09-18T20:01:27.179Z,12.57
2022-09-18T20:03:56.504Z,10.80
2022-09-18T20:06:24.409Z,10.43
2022-09-18T20:08:52.951Z,16.43
2022-09-18T20:11:22.235Z,11.20
2022-09-18T20:13:51.616Z,10.30
2022-09-18T20:16:21.151Z,9.83
2022-09-18T20:18:50.053Z,10.30
2022-09-18T20:21:20.195Z,8.97
2022-09-18T20:23:49.038Z,9.20
2022-09-18T20:26:20.351Z,10.17
2022-09-18T20:28:49.633Z,11.87
2022-09-18T20:31:18.224Z,10.33
2022-09-18T20:33:47.171Z,10.43
2022-09-18T20:36:15.033Z,11.73
2022-09-18T20:38:43.827Z,15.83
2022-09-18T20:41:13.631Z,20.53
2022-09-18T20:43:42.060Z,15.80
2022-09-18T20:46:14.315Z,13.30
2022-09-18T20:48:45.343Z,12.40
2022-09-18T20:51:15.316Z,14.30
2022-09-18T20:53:46.447Z,11.50
2022-09-18T20:56:15.983Z,12.20
2022-09-18T20:58:43.874Z,13.20
2022-09-18T21:01:15.531Z,10.40
2022-09-18T21:03:45.003Z,13.50
2022-09-18T21:06:23.492Z,10.70
2022-09-18T21:08:53.913Z,14.10
2022-09-18T21:11:23.965Z,14.17
2022-09-18T21:13:53.865Z,10.63
2022-09-18T21:16:26.888Z,11.73
2022-09-18T21:18:57.696Z,11.60
2022-09-18T21:21:27.574Z,12.33
2022-09-18T21:23:58.485Z,11.73
2022-09-18T21:26:28.139Z,11.60
2022-09-18T21:29:00.369Z,11.07
2022-09-18T21:31:30.366Z,15.10
2022-09-18T21:34:00.549Z,13.20
2022-09-18T21:36:29.023Z,11.97
2022-09-18T21:38:56.908Z,11.87
2022-09-18T21:41:26.201Z,12.77
2022-09-18T21:43:57.458Z,12.03
2022-09-18T21:46:25.634Z,10.57
2022-09-18T21:48:56.746Z,11.83
2022-09-18T21:51:24.610Z,13.70
2022-09-18T21:53:52.456Z,11.40
2022-09-18T21:56:21.805Z,11.23
2022-09-18T21:58:50.658Z,10.47
2022-09-18T22:01:20.528Z,12.93
2022-09-18T22:03:53.502Z,10.97
2022-09-18T22:06:28.544Z,11.60
2022-09-18T22:08:59.614Z,9.63
2022-09-18T22:11:32.294Z,10.27
2022-09-18T22:14:01.000Z,10.40
2022-09-18T22:16:29.697Z,6.83
2022-09-18T22:18:57.996Z,6.20
2022-09-18T22:21:29.240Z,5.03
2022-09-18T22:24:06.271Z,4.83
2022-09-18T22:26:37.015Z,5.27
2022-09-18T22:29:13.449Z,5.50
2022-09-18T22:31:41.378Z,8.13
2022-09-18T22:34:09.563Z,8.80
2022-09-18T22:36:38.789Z,8.33
2022-09-18T22:39:06.937Z,8.67
2022-09-18T22:41:40.193Z,10.07
2022-09-18T22:44:08.765Z,9.50
2022-09-18T22:46:39.317Z,9.53
2022-09-18T22:49:08.810Z,8.43
2022-09-18T22:51:40.108Z,8.33
2022-09-18T22:54:08.749Z,8.80
2022-09-18T22:56:39.973Z,7.83
2022-09-18T22:59:08.364Z,9.50
2022-09-18T23:01:41.641Z,9.90
2022-09-18T23:04:10.181Z,11.13
2022-09-18T23:06:39.536Z,9.70
2022-09-18T23:09:07.628Z,7.60
2022-09-18T23:11:36.153Z,11.43
2022-09-18T23:14:06.491Z,8.67
2022-09-18T23:16:36.573Z,8.67
2022-09-18T23:19:06.458Z,8.33
2022-09-18T23:21:35.983Z,7.57
2022-09-18T23:24:09.094Z,6.23
2022-09-18T23:26:39.326Z,5.93
2022-09-18T23:29:08.644Z,7.20
2022-09-18T23:31:38.939Z,10.50
2022-09-18T23:34:10.566Z,9.70
2022-09-18T23:36:40.635Z,9.30
2022-09-18T23:39:13.690Z,8.33
2022-09-18T23:41:42.558Z,8.40
2022-09-18T23:44:12.332Z,9.47
2022-09-18T23:46:40.569Z,8.37
2022-09-18T23:49:09.886Z,10.60
2022-09-18T23:51:40.474Z,9.10
2022-09-18T23:54:15.528Z,9.37
2022-09-18T23:56:44.041Z,8.13
2022-09-18T23:59:13.191Z,7.50
